This is the latest recevied weather packets stored in our database for station/object DH8TOM-2. If no packets are shown the sender has not sent any weather packets the latest 1 day(s).
| Time | Temp. | Humidity | Pressure | Rain* | Wind** | Luminosity | Snow |
|---|---|---|---|---|---|---|---|
| 1777986762 | 15.56° C | 85% | 1006.4 hPa | 1.02 mm | 0.45 m/s, 288° | - | - |
| 1777986460 | 15.56° C | 85% | 1006.4 hPa | 1.02 mm | 0.45 m/s, 288° | - | - |
| 1777986159 | 15.56° C | 86% | 1006.4 hPa | 1.78 mm | 0.45 m/s, 270° | - | - |
| 1777985859 | 15.56° C | 86% | 1006.4 hPa | 1.78 mm | 0.45 m/s, 270° | - | - |
| 1777985558 | 15.56° C | 85% | 1006.4 hPa | 2.54 mm | 0.45 m/s, 270° | - | - |
| 1777985256 | 15.56° C | 85% | 1006.4 hPa | 2.54 mm | 0.45 m/s, 270° | - | - |
| 1777984955 | 15.56° C | 85% | 1006.3 hPa | 2.54 mm | 0.45 m/s, 270° | - | - |
| 1777984654 | 15.56° C | 85% | 1006.3 hPa | 2.54 mm | 0.45 m/s, 270° | - | - |
| 1777984353 | 15.56° C | 84% | 1006.3 hPa | 2.54 mm | 0.45 m/s, 254° | - | - |
| 1777984053 | 15.56° C | 84% | 1006.3 hPa | 2.54 mm | 0.45 m/s, 254° | - | - |
| 1777983752 | 16.11° C | 82% | 1006.3 hPa | 2.29 mm | 0.45 m/s, 225° | - | - |
| 1777983451 | 16.11° C | 82% | 1006.3 hPa | 2.29 mm | 0.45 m/s, 225° | - | - |
| 1777983150 | 16.11° C | 80% | 1006.3 hPa | 2.03 mm | 0.45 m/s, 221° | - | - |
| 1777982848 | 16.11° C | 80% | 1006.3 hPa | 2.03 mm | 0.45 m/s, 221° | - | - |
| 1777982547 | 16.67° C | 77% | 1006.3 hPa | 1.27 mm | 1.34 m/s, 180° | - | - |
| 1777982246 | 16.67° C | 77% | 1006.3 hPa | 1.27 mm | 1.34 m/s, 180° | - | - |
| 1777981946 | 18.33° C | 72% | 1006 hPa | 0.25 mm | 0.89 m/s, 239° | - | - |
| 1777981645 | 18.33° C | 72% | 1006 hPa | 0.25 mm | 0.89 m/s, 239° | - | - |
| 1777981344 | 19.44° C | 67% | 1005.7 hPa | 0 mm | 0.89 m/s, 196° | - | - |
| 1777981043 | 19.44° C | 67% | 1005.7 hPa | 0 mm | 0.89 m/s, 196° | - | - |
| 1777980741 | 20° C | 66% | 1005.6 hPa | 0 mm | 0.45 m/s, 153° | - | - |
| 1777980440 | 20° C | 66% | 1005.6 hPa | 0 mm | 0.45 m/s, 153° | - | - |
| 1777980139 | 20° C | 64% | 1005.5 hPa | 0 mm | 0.45 m/s, 180° | - | - |
| 1777979838 | 20° C | 64% | 1005.5 hPa | 0 mm | 0.45 m/s, 180° | - | - |
| 1777979538 | 20° C | 64% | 1005.5 hPa | 0 mm | 0.45 m/s, 135° | - | - |
* Rain latest hour (hover to see other rain measurements)
** Current wind speed in m/s (hover to see current wind gust speed)